createdAt,value
2018-11-11T00:02:06.140Z,96351.14
2018-11-11T00:04:33.410Z,96352.89
2018-11-11T00:07:00.847Z,96349.55
2018-11-11T00:09:28.077Z,96356.98
2018-11-11T00:11:55.433Z,96361.94
2018-11-11T00:14:22.699Z,96359.61
2018-11-11T00:16:50.072Z,96359.30
2018-11-11T00:19:23.761Z,96364.91
2018-11-11T00:21:51.868Z,96366.81
2018-11-11T00:24:19.101Z,96369.28
2018-11-11T00:26:46.385Z,96367.58
2018-11-11T00:29:13.685Z,96355.63
2018-11-11T00:31:40.930Z,96363.67
2018-11-11T00:34:08.388Z,96372.84
2018-11-11T00:36:35.607Z,96370.59
2018-11-11T00:39:03.867Z,96384.49
2018-11-11T00:41:31.373Z,96385.95
2018-11-11T00:43:58.639Z,96381.13
2018-11-11T00:46:26.008Z,96377.79
2018-11-11T00:48:53.244Z,96379.91
2018-11-11T00:51:20.614Z,96391.50
2018-11-11T00:53:47.863Z,96390.52
2018-11-11T00:56:15.143Z,96386.17
2018-11-11T00:58:42.446Z,96382.32
2018-11-11T01:01:09.705Z,96390.05
2018-11-11T01:03:36.952Z,96398.88
2018-11-11T01:06:04.295Z,96404.08
2018-11-11T01:08:31.683Z,96403.06
2018-11-11T01:10:58.956Z,96399.86
2018-11-11T01:13:26.228Z,96402.59
2018-11-11T01:15:53.560Z,96397.00
2018-11-11T01:18:20.799Z,96398.30
2018-11-11T01:20:48.047Z,96397.77
2018-11-11T01:23:15.308Z,96401.64
2018-11-11T01:25:42.520Z,96407.25
2018-11-11T01:28:09.849Z,96392.38
2018-11-11T01:30:37.124Z,96384.04
2018-11-11T01:33:04.377Z,96377.48
2018-11-11T01:35:31.605Z,96378.14
2018-11-11T01:37:58.828Z,96375.86
2018-11-11T01:40:26.059Z,96379.63
2018-11-11T01:42:53.380Z,96397.39
2018-11-11T01:45:20.628Z,96394.70
2018-11-11T01:47:49.215Z,96408.16
2018-11-11T01:50:16.584Z,96416.02
2018-11-11T01:52:43.799Z,96432.94
2018-11-11T01:55:11.713Z,96432.68
2018-11-11T01:57:39.212Z,96429.65
2018-11-11T02:00:08.914Z,96438.60
2018-11-11T02:02:36.150Z,96431.12
2018-11-11T02:05:04.286Z,96441.84
2018-11-11T02:07:31.486Z,96446.27
2018-11-11T02:09:58.783Z,96449.00
2018-11-11T02:12:25.980Z,96453.85
2018-11-11T02:14:53.342Z,96456.84
2018-11-11T02:17:20.596Z,96452.23
2018-11-11T02:19:48.352Z,96459.05
2018-11-11T02:22:15.528Z,96467.13
2018-11-11T02:24:42.781Z,96458.47
2018-11-11T02:27:10.055Z,96465.85
2018-11-11T02:29:37.219Z,96473.03
2018-11-11T02:32:04.664Z,96465.62
2018-11-11T02:34:31.808Z,96470.30
2018-11-11T02:36:59.096Z,96469.38
2018-11-11T02:39:26.295Z,96481.05
2018-11-11T02:41:53.494Z,96500.40
2018-11-11T02:44:20.743Z,96504.81
2018-11-11T02:46:47.956Z,96505.83
2018-11-11T02:49:15.230Z,96505.19
2018-11-11T02:51:42.432Z,96497.23
2018-11-11T02:54:09.662Z,96489.58
2018-11-11T02:56:36.917Z,96492.52
2018-11-11T02:59:04.178Z,96491.06
2018-11-11T03:01:31.408Z,96483.08
2018-11-11T03:03:58.685Z,96488.09
2018-11-11T03:06:25.926Z,96477.04
2018-11-11T03:08:53.170Z,96478.18
2018-11-11T03:11:20.400Z,96460.86
2018-11-11T03:13:47.583Z,96458.77
2018-11-11T03:16:14.819Z,96454.89
2018-11-11T03:18:42.048Z,96457.28
2018-11-11T03:21:09.247Z,96451.76
2018-11-11T03:23:36.436Z,96441.61
2018-11-11T03:26:10.363Z,96441.14
2018-11-11T03:28:37.627Z,96433.36
2018-11-11T03:31:04.826Z,96431.53
2018-11-11T03:33:32.060Z,96440.06
2018-11-11T03:35:59.286Z,96438.28
2018-11-11T03:38:26.472Z,96427.83
2018-11-11T03:40:53.769Z,96426.22
2018-11-11T03:43:21.000Z,96437.38
2018-11-11T03:45:48.221Z,96441.22
2018-11-11T03:48:15.404Z,96446.95
2018-11-11T03:50:42.629Z,96455.23
2018-11-11T03:53:09.853Z,96455.64
2018-11-11T03:55:37.090Z,96471.48
2018-11-11T03:58:04.461Z,96475.82
2018-11-11T04:00:31.682Z,96481.09
2018-11-11T04:02:58.849Z,96479.36
2018-11-11T04:05:26.073Z,96480.68
2018-11-11T04:07:53.269Z,96481.69
2018-11-11T04:10:20.526Z,96481.05
2018-11-11T04:12:48.312Z,96491.67
2018-11-11T04:15:16.770Z,96488.73
2018-11-11T04:17:43.985Z,96481.52
2018-11-11T04:20:12.727Z,96458.64
2018-11-11T04:22:39.914Z,96466.83
2018-11-11T04:25:07.368Z,96467.67
2018-11-11T04:27:34.594Z,96474.00
2018-11-11T04:30:02.453Z,96483.31
2018-11-11T04:32:29.632Z,96470.84
2018-11-11T04:34:57.323Z,96476.03
2018-11-11T04:37:24.550Z,96464.44
2018-11-11T04:39:51.741Z,96452.61
2018-11-11T04:42:18.998Z,96455.70
2018-11-11T04:44:46.255Z,96471.84
2018-11-11T04:47:13.483Z,96484.76
2018-11-11T04:49:40.667Z,96475.73
2018-11-11T04:52:07.952Z,96477.81
2018-11-11T04:54:35.158Z,96465.69
2018-11-11T04:57:02.454Z,96462.48
2018-11-11T04:59:29.656Z,96464.61
2018-11-11T05:01:56.889Z,96459.08
2018-11-11T05:04:24.105Z,96468.61
2018-11-11T05:06:51.276Z,96468.07
2018-11-11T05:09:18.573Z,96466.69
2018-11-11T05:11:45.885Z,96472.15
2018-11-11T05:14:13.668Z,96481.52
2018-11-11T05:16:40.895Z,96481.34
2018-11-11T05:19:09.289Z,96478.36
2018-11-11T05:21:36.612Z,96478.48
2018-11-11T05:24:04.430Z,96469.39
2018-11-11T05:26:31.681Z,96471.91
2018-11-11T05:28:58.874Z,96477.64
2018-11-11T05:31:26.068Z,96490.78
2018-11-11T05:33:53.253Z,96484.68
2018-11-11T05:36:20.435Z,96483.12
2018-11-11T05:38:47.657Z,96481.69
2018-11-11T05:41:14.780Z,96485.53
2018-11-11T05:43:42.081Z,96487.62
2018-11-11T05:46:09.289Z,96486.61
2018-11-11T05:48:36.472Z,96480.27
2018-11-11T05:51:03.892Z,96473.47
2018-11-11T05:53:31.084Z,96484.69
2018-11-11T05:55:58.299Z,96489.27
2018-11-11T05:58:25.488Z,96488.16
2018-11-11T06:00:52.732Z,96488.63
2018-11-11T06:03:20.012Z,96481.05
2018-11-11T06:05:47.224Z,96485.40
2018-11-11T06:08:14.490Z,96482.47
2018-11-11T06:10:41.688Z,96475.79
2018-11-11T06:13:08.870Z,96484.08
2018-11-11T06:15:36.037Z,96495.08
2018-11-11T06:18:03.276Z,96503.73
2018-11-11T06:20:30.427Z,96503.64
2018-11-11T06:22:57.641Z,96500.23
2018-11-11T06:25:24.828Z,96479.80
2018-11-11T06:27:52.039Z,96485.33
2018-11-11T06:30:19.288Z,96481.63
2018-11-11T06:32:46.500Z,96478.29
2018-11-11T06:35:13.734Z,96470.64
2018-11-11T06:37:41.023Z,96462.41
2018-11-11T06:40:09.569Z,96455.00
2018-11-11T06:42:37.031Z,96435.89
2018-11-11T06:45:06.365Z,96453.28
2018-11-11T06:47:33.556Z,96468.21
2018-11-11T06:50:00.781Z,96477.17
2018-11-11T06:52:27.946Z,96476.37
2018-11-11T06:54:55.153Z,96481.63
2018-11-11T06:57:22.376Z,96491.97
2018-11-11T06:59:49.582Z,96493.59
2018-11-11T07:02:16.821Z,96498.00
2018-11-11T07:04:43.994Z,96495.91
2018-11-11T07:07:11.181Z,96484.24
2018-11-11T07:09:38.408Z,96470.45
2018-11-11T07:12:05.660Z,96474.44
2018-11-11T07:14:32.847Z,96479.16
2018-11-11T07:17:00.072Z,96485.39
2018-11-11T07:19:27.252Z,96492.98
2018-11-11T07:21:54.467Z,96498.64
2018-11-11T07:24:21.728Z,96494.32
2018-11-11T07:26:48.923Z,96504.33
2018-11-11T07:29:16.105Z,96502.11
2018-11-11T07:31:43.296Z,96498.21
2018-11-11T07:34:10.457Z,96495.13
2018-11-11T07:36:37.661Z,96506.83
2018-11-11T07:39:08.609Z,96500.94
2018-11-11T07:41:35.861Z,96510.23
2018-11-11T07:44:03.115Z,96521.03
2018-11-11T07:46:30.360Z,96526.64
2018-11-11T07:48:57.520Z,96528.71
2018-11-11T07:51:24.807Z,96532.05
2018-11-11T07:53:52.073Z,96532.52
2018-11-11T07:56:19.303Z,96539.41
2018-11-11T07:58:46.564Z,96535.65
2018-11-11T08:01:13.799Z,96545.35
2018-11-11T08:03:41.030Z,96535.03
2018-11-11T08:06:08.212Z,96548.36
2018-11-11T08:08:35.489Z,96553.79
2018-11-11T08:11:14.208Z,96569.33
2018-11-11T08:13:41.440Z,96575.62
2018-11-11T08:16:08.695Z,96579.94
2018-11-11T08:18:35.956Z,96607.11
2018-11-11T08:21:03.179Z,96617.95
2018-11-11T08:23:30.440Z,96618.66
2018-11-11T08:25:57.652Z,96605.62
2018-11-11T08:28:24.848Z,96611.84
2018-11-11T08:30:52.045Z,96599.35
2018-11-11T08:33:19.193Z,96574.66
2018-11-11T08:35:46.362Z,96577.91
2018-11-11T08:38:13.552Z,96579.36
2018-11-11T08:40:40.826Z,96573.64
2018-11-11T08:43:07.936Z,96580.96
2018-11-11T08:45:35.097Z,96595.22
2018-11-11T08:48:02.440Z,96609.52
2018-11-11T08:50:29.584Z,96614.72
2018-11-11T08:52:56.712Z,96614.13
2018-11-11T08:55:23.932Z,96614.28
2018-11-11T08:57:51.216Z,96634.06
2018-11-11T09:00:18.460Z,96643.23
2018-11-11T09:02:45.653Z,96659.63
2018-11-11T09:05:12.860Z,96671.92
2018-11-11T09:07:40.074Z,96685.33
2018-11-11T09:10:08.585Z,96679.75
2018-11-11T09:12:35.744Z,96687.73
2018-11-11T09:15:03.672Z,96690.72
2018-11-11T09:17:31.210Z,96686.91
2018-11-11T09:19:58.403Z,96679.70
2018-11-11T09:22:25.632Z,96679.39
2018-11-11T09:24:52.844Z,96670.94
2018-11-11T09:27:20.063Z,96688.08
2018-11-11T09:29:47.356Z,96677.54
2018-11-11T09:32:14.576Z,96687.54
2018-11-11T09:34:41.810Z,96684.86
2018-11-11T09:37:09.244Z,96692.31
2018-11-11T09:39:36.523Z,96702.48
2018-11-11T09:42:04.614Z,96700.73
2018-11-11T09:44:31.873Z,96703.14
2018-11-11T09:46:59.157Z,96704.34
2018-11-11T09:49:26.412Z,96711.61
2018-11-11T09:51:54.023Z,96722.06
2018-11-11T09:54:21.288Z,96725.61
2018-11-11T09:56:48.447Z,96726.92
2018-11-11T09:59:15.749Z,96731.23
2018-11-11T10:01:43.013Z,96732.89
2018-11-11T10:04:15.900Z,96737.47
2018-11-11T10:07:52.114Z,96738.86
2018-11-11T10:10:24.416Z,96728.28
2018-11-11T10:13:01.928Z,96732.63
2018-11-11T10:15:37.135Z,96742.64
2018-11-11T10:18:12.607Z,96742.68
2018-11-11T10:20:47.669Z,96740.93
2018-11-11T10:23:18.701Z,96738.91
2018-11-11T10:25:54.662Z,96730.14
2018-11-11T10:28:30.272Z,96728.59
2018-11-11T10:31:35.371Z,96720.20
2018-11-11T10:34:09.952Z,96726.98
2018-11-11T10:36:46.046Z,96719.94
2018-11-11T10:39:17.875Z,96718.23
2018-11-11T10:41:54.261Z,96728.56
2018-11-11T10:44:40.816Z,96732.73
2018-11-11T10:47:12.645Z,96720.84
2018-11-11T10:49:43.052Z,96726.70
2018-11-11T10:52:10.308Z,96736.19
2018-11-11T10:54:37.980Z,96736.56
2018-11-11T10:57:05.295Z,96745.97
2018-11-11T10:59:32.524Z,96746.90
2018-11-11T11:02:05.424Z,96751.32
2018-11-11T11:04:32.654Z,96747.61
2018-11-11T11:07:05.804Z,96733.23
2018-11-11T11:09:33.021Z,96753.19
2018-11-11T11:12:00.258Z,96754.06
2018-11-11T11:14:27.457Z,96754.75
2018-11-11T11:16:54.689Z,96754.75
2018-11-11T11:19:22.335Z,96759.58
2018-11-11T11:21:49.513Z,96759.88
2018-11-11T11:24:16.749Z,96759.94
2018-11-11T11:26:43.900Z,96752.95
2018-11-11T11:29:11.133Z,96744.26
2018-11-11T11:31:38.441Z,96723.91
2018-11-11T11:34:05.784Z,96742.78
2018-11-11T11:36:33.050Z,96752.02
2018-11-11T11:39:00.277Z,96759.03
2018-11-11T11:41:27.641Z,96765.92
2018-11-11T11:43:54.769Z,96759.95
2018-11-11T11:46:22.054Z,96768.48
2018-11-11T11:48:49.327Z,96768.20
2018-11-11T11:51:16.589Z,96763.53
2018-11-11T11:53:43.853Z,96757.31
2018-11-11T11:56:11.076Z,96763.91
2018-11-11T11:58:38.287Z,96753.35
2018-11-11T12:01:05.518Z,96777.20
2018-11-11T12:03:32.727Z,96774.48
2018-11-11T12:05:59.892Z,96768.81
2018-11-11T12:08:27.073Z,96769.67
2018-11-11T12:10:54.338Z,96761.59
2018-11-11T12:13:21.479Z,96748.77
2018-11-11T12:15:48.735Z,96740.59
2018-11-11T12:18:15.985Z,96736.81
2018-11-11T12:20:43.188Z,96730.13
2018-11-11T12:23:10.742Z,96726.24
2018-11-11T12:25:38.672Z,96727.85
2018-11-11T12:28:05.964Z,96723.28
2018-11-11T12:30:33.314Z,96718.38
2018-11-11T12:33:00.603Z,96732.36
2018-11-11T12:35:27.809Z,96734.38
2018-11-11T12:37:55.023Z,96740.98
2018-11-11T12:40:22.344Z,96737.67
2018-11-11T12:42:49.478Z,96736.27
2018-11-11T12:45:16.699Z,96733.45
2018-11-11T12:47:43.948Z,96729.48
2018-11-11T12:50:12.170Z,96723.66
2018-11-11T12:52:39.441Z,96728.48
2018-11-11T12:55:07.053Z,96720.47
2018-11-11T12:57:34.332Z,96726.78
2018-11-11T13:00:01.566Z,96725.38
2018-11-11T13:02:28.815Z,96721.92
2018-11-11T13:04:56.436Z,96723.92
2018-11-11T13:07:23.590Z,96724.23
2018-11-11T13:09:50.888Z,96730.34
2018-11-11T13:12:18.352Z,96729.24
2018-11-11T13:14:45.466Z,96727.16
2018-11-11T13:17:13.072Z,96734.91
2018-11-11T13:19:40.404Z,96729.11
2018-11-11T13:22:07.771Z,96744.69
2018-11-11T13:24:35.008Z,96745.30
2018-11-11T13:27:02.252Z,96735.56
2018-11-11T13:29:29.483Z,96723.44
2018-11-11T13:31:56.750Z,96713.34
2018-11-11T13:34:23.913Z,96719.50
2018-11-11T13:36:51.174Z,96723.72
2018-11-11T13:39:18.426Z,96707.53
2018-11-11T13:41:45.830Z,96734.32
2018-11-11T13:44:13.124Z,96738.83
2018-11-11T13:46:40.569Z,96737.80
2018-11-11T13:49:07.684Z,96737.77
2018-11-11T13:51:41.824Z,96744.92
2018-11-11T13:54:09.210Z,96752.03
2018-11-11T13:56:36.641Z,96762.42
2018-11-11T13:59:03.946Z,96755.50
2018-11-11T14:01:31.211Z,96764.20
2018-11-11T14:03:58.404Z,96777.97
2018-11-11T14:06:25.667Z,96779.70
2018-11-11T14:08:52.897Z,96775.02
2018-11-11T14:11:20.124Z,96782.26
2018-11-11T14:13:47.425Z,96790.50
2018-11-11T14:16:14.636Z,96790.19
2018-11-11T14:18:42.049Z,96782.34
2018-11-11T14:21:09.818Z,96779.47
2018-11-11T14:23:37.089Z,96791.18
2018-11-11T14:26:04.467Z,96788.78
2018-11-11T14:28:31.644Z,96781.55
2018-11-11T14:30:58.813Z,96789.00
2018-11-11T14:33:26.092Z,96790.88
2018-11-11T14:35:53.414Z,96791.71
2018-11-11T14:38:20.647Z,96801.27
2018-11-11T14:40:47.759Z,96791.70
2018-11-11T14:43:14.991Z,96790.39
2018-11-11T14:45:42.173Z,96781.29
2018-11-11T14:48:09.397Z,96772.53
2018-11-11T14:50:36.618Z,96755.05
2018-11-11T14:53:04.256Z,96777.75
2018-11-11T14:55:31.455Z,96810.38
2018-11-11T14:57:59.550Z,96820.94
2018-11-11T15:00:29.036Z,96837.09
2018-11-11T15:03:00.015Z,96855.59
2018-11-11T15:05:27.276Z,96858.91
2018-11-11T15:07:54.506Z,96861.23
2018-11-11T15:10:21.755Z,96863.64
2018-11-11T15:12:49.140Z,96857.05
2018-11-11T15:15:17.788Z,96854.02
2018-11-11T15:17:45.663Z,96847.61
2018-11-11T15:20:14.198Z,96835.42
2018-11-11T15:22:41.678Z,96825.25
2018-11-11T15:25:11.305Z,96811.27
2018-11-11T15:27:38.972Z,96807.54
2018-11-11T15:30:08.886Z,96812.12
2018-11-11T15:32:36.116Z,96810.57
2018-11-11T15:35:04.054Z,96833.33
2018-11-11T15:37:31.312Z,96829.17
2018-11-11T15:39:58.520Z,96827.97
2018-11-11T15:42:25.882Z,96834.53
2018-11-11T15:44:53.087Z,96835.07
2018-11-11T15:47:20.332Z,96824.80
2018-11-11T15:49:48.263Z,96827.31
2018-11-11T15:52:16.578Z,96823.89
2018-11-11T15:54:43.776Z,96811.09
2018-11-11T15:57:11.189Z,96812.69
2018-11-11T15:59:38.450Z,96802.89
2018-11-11T16:02:06.297Z,96809.92
2018-11-11T16:04:50.830Z,96815.66
2018-11-11T16:07:22.978Z,96825.18
2018-11-11T16:09:54.521Z,96828.28
2018-11-11T16:12:25.909Z,96837.02
2018-11-11T16:14:57.103Z,96828.39
2018-11-11T16:17:28.894Z,96834.81
2018-11-11T16:20:00.709Z,96851.53
2018-11-11T16:22:32.180Z,96856.62
2018-11-11T16:25:04.780Z,96861.50
2018-11-11T16:27:33.246Z,96857.75
2018-11-11T16:30:06.633Z,96861.33
2018-11-11T16:32:36.275Z,96860.31
2018-11-11T16:47:57.030Z,96859.13
2018-11-11T16:50:28.196Z,96851.45
2018-11-11T16:52:57.337Z,96841.25
2018-11-11T16:55:26.206Z,96850.32
2018-11-11T16:57:58.193Z,96853.50
2018-11-11T17:00:27.159Z,96861.55
2018-11-11T17:02:56.530Z,96852.32
2018-11-11T17:05:31.012Z,96854.48
2018-11-11T17:07:58.677Z,96857.69
2018-11-11T17:10:27.529Z,96861.10
2018-11-11T17:12:56.378Z,96864.72
2018-11-11T17:15:29.353Z,96859.31
2018-11-11T17:17:57.517Z,96859.52
2018-11-11T17:20:29.393Z,96867.97
2018-11-11T17:23:02.789Z,96868.98
2018-11-11T17:25:32.610Z,96869.34
2018-11-11T17:28:00.344Z,96879.45
2018-11-11T17:30:29.415Z,96884.55
2018-11-11T17:33:03.314Z,96882.52
2018-11-11T17:35:31.172Z,96878.48
2018-11-11T17:38:00.502Z,96882.45
2018-11-11T17:40:30.055Z,96896.23
2018-11-11T17:42:58.337Z,96897.88
2018-11-11T17:45:26.163Z,96904.65
2018-11-11T17:47:54.524Z,96907.31
2018-11-11T17:50:30.110Z,96912.05
2018-11-11T17:53:02.223Z,96912.07
2018-11-11T17:55:34.650Z,96916.23
2018-11-11T17:58:04.429Z,96924.14
2018-11-11T18:00:32.386Z,96921.08
2018-11-11T18:03:02.788Z,96923.90
2018-11-11T18:05:32.491Z,96924.33
2018-11-11T18:08:00.451Z,96932.56
2018-11-11T18:10:32.682Z,96939.09
2018-11-11T18:13:00.079Z,96929.03
2018-11-11T18:15:28.953Z,96925.80
2018-11-11T18:17:56.490Z,96926.31
2018-11-11T18:20:28.185Z,96940.69
2018-11-11T18:22:56.734Z,96942.39
2018-11-11T18:25:24.218Z,96934.70
2018-11-11T18:27:51.805Z,96936.61
2018-11-11T18:30:26.475Z,96938.17
2018-11-11T18:32:54.866Z,96938.70
2018-11-11T18:35:22.617Z,96948.70
2018-11-11T18:37:50.293Z,96940.30
2018-11-11T18:40:19.425Z,96938.80
2018-11-11T18:42:46.962Z,96939.39
2018-11-11T18:45:16.548Z,96921.94
2018-11-11T18:47:44.757Z,96928.27
2018-11-11T18:50:18.143Z,96926.42
2018-11-11T18:52:45.856Z,96923.84
2018-11-11T18:55:14.346Z,96931.44
2018-11-11T18:57:42.256Z,96927.66
2018-11-11T19:00:12.314Z,96928.98
2018-11-11T19:02:40.420Z,96931.69
2018-11-11T19:05:09.805Z,96934.72
2018-11-11T19:07:37.767Z,96930.24
2018-11-11T19:10:06.788Z,96930.19
2018-11-11T19:12:36.177Z,96927.61
2018-11-11T19:15:04.538Z,96928.77
2018-11-11T19:17:33.673Z,96934.03
2018-11-11T19:20:01.292Z,96926.83
2018-11-11T19:22:29.113Z,96938.67
2018-11-11T19:24:56.655Z,96935.20
2018-11-11T19:27:24.106Z,96928.27
2018-11-11T19:29:51.956Z,96931.72
2018-11-11T19:32:20.435Z,96921.44
2018-11-11T19:34:48.664Z,96924.27
2018-11-11T19:37:16.822Z,96921.39
2018-11-11T19:39:44.254Z,96928.16
2018-11-11T19:42:11.763Z,96937.66
2018-11-11T19:44:39.247Z,96934.64
2018-11-11T19:47:06.993Z,96928.19
2018-11-11T19:49:34.728Z,96931.36
2018-11-11T19:52:02.235Z,96933.23
2018-11-11T19:54:29.955Z,96942.92
2018-11-11T19:56:57.459Z,96952.32
2018-11-11T19:59:24.997Z,96951.39
2018-11-11T20:01:52.779Z,96949.98
2018-11-11T20:04:20.490Z,96959.09
2018-11-11T20:06:48.069Z,96954.70
2018-11-11T20:09:15.810Z,96959.72
2018-11-11T20:11:57.435Z,96966.73
2018-11-11T20:14:27.284Z,96974.33
2018-11-11T20:16:55.457Z,96969.41
2018-11-11T20:19:23.240Z,96969.70
2018-11-11T20:21:52.256Z,96968.97
2018-11-11T20:24:21.135Z,96960.06
2018-11-11T20:26:49.790Z,96958.89
2018-11-11T20:29:20.699Z,96966.09
2018-11-11T20:31:48.486Z,96963.27
2018-11-11T20:34:16.212Z,96962.77
2018-11-11T20:36:44.964Z,96965.69
2018-11-11T20:39:13.243Z,96950.55
2018-11-11T20:41:41.141Z,96955.28
2018-11-11T20:44:10.798Z,96956.30
2018-11-11T20:46:40.595Z,96963.34
2018-11-11T20:49:08.528Z,96957.84
2018-11-11T20:51:36.326Z,96960.53
2018-11-11T20:54:04.597Z,96978.03
2018-11-11T20:56:32.345Z,96962.80
2018-11-11T20:59:00.170Z,96971.30
2018-11-11T21:01:28.050Z,96973.88
2018-11-11T21:03:56.057Z,96975.98
2018-11-11T21:06:23.851Z,96974.17
2018-11-11T21:08:51.869Z,96971.79
2018-11-11T21:11:20.602Z,96969.16
2018-11-11T21:13:50.672Z,96973.47
2018-11-11T21:16:18.397Z,96976.70
2018-11-11T21:18:49.730Z,96978.55
2018-11-11T21:21:17.517Z,96984.42
2018-11-11T21:23:47.338Z,96989.92
2018-11-11T21:26:15.274Z,96988.72
2018-11-11T21:28:43.688Z,96987.12
2018-11-11T21:31:12.523Z,96977.05
2018-11-11T21:33:41.068Z,96972.80
2018-11-11T21:36:09.208Z,96982.80
2018-11-11T21:38:36.988Z,96999.62
2018-11-11T21:41:05.500Z,96985.22
2018-11-11T21:43:33.326Z,96979.47
2018-11-11T21:46:01.148Z,96979.47
2018-11-11T21:48:28.915Z,96981.14
2018-11-11T21:50:57.942Z,96983.55
2018-11-11T21:54:35.049Z,96985.42
2018-11-11T21:57:59.669Z,96979.71
2018-11-11T22:03:20.473Z,96997.55
2018-11-11T22:06:16.220Z,97002.14
2018-11-11T22:08:44.241Z,97006.44
2018-11-11T22:11:13.852Z,97003.31
2018-11-11T22:13:42.701Z,97009.13
2018-11-11T22:16:10.782Z,97021.42
2018-11-11T22:18:38.637Z,97020.92
2018-11-11T22:21:09.146Z,97024.84
2018-11-11T22:24:19.801Z,97029.11
2018-11-11T22:26:47.717Z,97029.81
2018-11-11T22:29:15.942Z,97032.23
2018-11-11T22:31:43.632Z,97029.34
2018-11-11T22:34:11.572Z,97038.82
2018-11-11T22:36:39.387Z,97040.43
2018-11-11T22:39:08.260Z,97040.52
2018-11-11T22:41:36.870Z,97027.41
2018-11-11T22:44:04.729Z,97032.73
2018-11-11T22:46:32.645Z,97032.56
2018-11-11T22:49:01.114Z,97032.80
2018-11-11T22:51:28.857Z,97031.99
2018-11-11T22:53:56.554Z,97036.14
2018-11-11T22:56:24.149Z,97025.50
2018-11-11T22:58:52.033Z,97041.19
2018-11-11T23:01:21.233Z,97046.02
2018-11-11T23:03:49.641Z,97051.05
2018-11-11T23:06:17.519Z,97059.63
2018-11-11T23:08:45.254Z,97060.98
2018-11-11T23:11:13.109Z,97057.22
2018-11-11T23:13:40.808Z,97062.66
2018-11-11T23:16:08.687Z,97051.87
2018-11-11T23:18:37.006Z,97052.66
2018-11-11T23:21:04.677Z,97054.20
2018-11-11T23:23:32.507Z,97058.44
2018-11-11T23:26:00.308Z,97061.03
2018-11-11T23:28:28.026Z,97058.16
2018-11-11T23:30:55.821Z,97080.64
2018-11-11T23:33:23.544Z,97074.95
2018-11-11T23:35:51.159Z,97080.00
2018-11-11T23:38:18.925Z,97080.77
2018-11-11T23:40:46.411Z,97079.95
2018-11-11T23:43:13.985Z,97083.65
2018-11-11T23:45:41.599Z,97085.98
2018-11-11T23:48:09.264Z,97088.06
2018-11-11T23:50:37.078Z,97088.02
2018-11-11T23:53:04.627Z,97082.77
2018-11-11T23:55:32.063Z,97073.82
2018-11-11T23:57:59.444Z,97078.58
